sensor_id;sensor_type;location;lat;lon;timestamp;temperature;humidity
5130;DHT22;2583;50.946;6.954;2023-06-04T00:02:07;16.20;6.80
5130;DHT22;2583;50.946;6.954;2023-06-04T00:04:34;16.20;6.70
5130;DHT22;2583;50.946;6.954;2023-06-04T00:07:01;16.20;6.50
5130;DHT22;2583;50.946;6.954;2023-06-04T00:09:28;16.20;6.50
5130;DHT22;2583;50.946;6.954;2023-06-04T00:11:55;16.10;6.50
5130;DHT22;2583;50.946;6.954;2023-06-04T00:14:22;16.10;6.80
5130;DHT22;2583;50.946;6.954;2023-06-04T00:16:49;16.10;7.00
5130;DHT22;2583;50.946;6.954;2023-06-04T00:19:16;16.10;7.20
5130;DHT22;2583;50.946;6.954;2023-06-04T00:21:43;16.00;7.40
5130;DHT22;2583;50.946;6.954;2023-06-04T00:24:10;15.90;7.50
5130;DHT22;2583;50.946;6.954;2023-06-04T00:26:39;15.90;7.50
5130;DHT22;2583;50.946;6.954;2023-06-04T00:29:06;15.90;7.90
5130;DHT22;2583;50.946;6.954;2023-06-04T00:31:33;15.80;8.00
5130;DHT22;2583;50.946;6.954;2023-06-04T00:34:00;15.70;7.90
5130;DHT22;2583;50.946;6.954;2023-06-04T00:36:27;15.70;8.10
5130;DHT22;2583;50.946;6.954;2023-06-04T00:38:53;15.70;8.30
5130;DHT22;2583;50.946;6.954;2023-06-04T00:41:20;15.60;8.30
5130;DHT22;2583;50.946;6.954;2023-06-04T00:43:47;15.50;8.20
5130;DHT22;2583;50.946;6.954;2023-06-04T00:46:24;15.50;8.40
5130;DHT22;2583;50.946;6.954;2023-06-04T00:48:52;15.40;8.50
5130;DHT22;2583;50.946;6.954;2023-06-04T00:51:20;15.40;8.60
5130;DHT22;2583;50.946;6.954;2023-06-04T00:53:51;15.40;8.60
5130;DHT22;2583;50.946;6.954;2023-06-04T00:56:18;15.40;8.80
5130;DHT22;2583;50.946;6.954;2023-06-04T00:58:46;15.30;8.90
5130;DHT22;2583;50.946;6.954;2023-06-04T01:03:55;15.30;9.30
5130;DHT22;2583;50.946;6.954;2023-06-04T01:06:38;15.20;9.30
5130;DHT22;2583;50.946;6.954;2023-06-04T01:09:05;15.20;9.50
5130;DHT22;2583;50.946;6.954;2023-06-04T01:13:59;15.10;9.50
5130;DHT22;2583;50.946;6.954;2023-06-04T01:16:27;15.00;9.60
5130;DHT22;2583;50.946;6.954;2023-06-04T01:18:58;15.00;9.70
5130;DHT22;2583;50.946;6.954;2023-06-04T01:21:30;15.00;10.00
5130;DHT22;2583;50.946;6.954;2023-06-04T01:24:05;14.90;10.00
5130;DHT22;2583;50.946;6.954;2023-06-04T01:26:33;14.90;10.30
5130;DHT22;2583;50.946;6.954;2023-06-04T01:29:01;14.90;10.10
5130;DHT22;2583;50.946;6.954;2023-06-04T01:31:28;14.90;9.90
5130;DHT22;2583;50.946;6.954;2023-06-04T01:33:59;14.90;10.10
5130;DHT22;2583;50.946;6.954;2023-06-04T01:36:26;14.80;10.20
5130;DHT22;2583;50.946;6.954;2023-06-04T01:38:53;14.80;10.40
5130;DHT22;2583;50.946;6.954;2023-06-04T01:41:19;14.80;10.70
5130;DHT22;2583;50.946;6.954;2023-06-04T01:43:46;14.70;10.60
5130;DHT22;2583;50.946;6.954;2023-06-04T01:46:13;14.70;10.80
5130;DHT22;2583;50.946;6.954;2023-06-04T01:48:40;14.70;10.80
5130;DHT22;2583;50.946;6.954;2023-06-04T01:51:07;14.60;10.90
5130;DHT22;2583;50.946;6.954;2023-06-04T01:53:34;14.60;10.70
5130;DHT22;2583;50.946;6.954;2023-06-04T01:56:01;14.60;10.80
5130;DHT22;2583;50.946;6.954;2023-06-04T01:58:28;14.60;10.80
5130;DHT22;2583;50.946;6.954;2023-06-04T02:00:56;14.60;10.80
5130;DHT22;2583;50.946;6.954;2023-06-04T02:03:26;14.60;10.80
5130;DHT22;2583;50.946;6.954;2023-06-04T02:05:54;14.60;10.90
5130;DHT22;2583;50.946;6.954;2023-06-04T02:08:21;14.60;11.10
5130;DHT22;2583;50.946;6.954;2023-06-04T02:10:48;14.50;11.30
5130;DHT22;2583;50.946;6.954;2023-06-04T02:13:15;14.50;11.40
5130;DHT22;2583;50.946;6.954;2023-06-04T02:15:42;14.50;11.70
5130;DHT22;2583;50.946;6.954;2023-06-04T02:18:20;14.50;11.70
5130;DHT22;2583;50.946;6.954;2023-06-04T02:20:50;14.40;12.00
5130;DHT22;2583;50.946;6.954;2023-06-04T02:23:18;14.40;12.00
5130;DHT22;2583;50.946;6.954;2023-06-04T02:25:46;14.40;12.10
5130;DHT22;2583;50.946;6.954;2023-06-04T02:28:13;14.40;12.30
5130;DHT22;2583;50.946;6.954;2023-06-04T02:30:40;14.40;12.40
5130;DHT22;2583;50.946;6.954;2023-06-04T02:33:07;14.40;12.30
5130;DHT22;2583;50.946;6.954;2023-06-04T02:35:36;14.30;12.40
5130;DHT22;2583;50.946;6.954;2023-06-04T02:38:03;14.30;12.40
5130;DHT22;2583;50.946;6.954;2023-06-04T02:40:30;14.30;12.50
5130;DHT22;2583;50.946;6.954;2023-06-04T02:42:57;14.20;12.50
5130;DHT22;2583;50.946;6.954;2023-06-04T02:45:24;14.20;12.90
5130;DHT22;2583;50.946;6.954;2023-06-04T02:47:51;14.10;13.10
5130;DHT22;2583;50.946;6.954;2023-06-04T02:50:18;14.10;13.40
5130;DHT22;2583;50.946;6.954;2023-06-04T02:52:46;14.10;13.40
5130;DHT22;2583;50.946;6.954;2023-06-04T02:55:13;14.00;13.50
5130;DHT22;2583;50.946;6.954;2023-06-04T02:57:41;14.00;13.90
5130;DHT22;2583;50.946;6.954;2023-06-04T03:00:16;13.90;14.10
5130;DHT22;2583;50.946;6.954;2023-06-04T03:02:47;13.90;14.50
5130;DHT22;2583;50.946;6.954;2023-06-04T03:05:16;13.80;14.60
5130;DHT22;2583;50.946;6.954;2023-06-04T03:07:45;13.70;14.90
5130;DHT22;2583;50.946;6.954;2023-06-04T03:10:13;13.70;15.20
5130;DHT22;2583;50.946;6.954;2023-06-04T03:12:41;13.70;15.60
5130;DHT22;2583;50.946;6.954;2023-06-04T03:15:08;13.60;16.00
5130;DHT22;2583;50.946;6.954;2023-06-04T03:17:35;13.60;16.10
5130;DHT22;2583;50.946;6.954;2023-06-04T03:20:03;13.60;16.30
5130;DHT22;2583;50.946;6.954;2023-06-04T03:22:31;13.60;16.70
5130;DHT22;2583;50.946;6.954;2023-06-04T03:25:00;13.60;17.10
5130;DHT22;2583;50.946;6.954;2023-06-04T03:27:27;13.60;17.40
5130;DHT22;2583;50.946;6.954;2023-06-04T03:29:53;13.50;17.80
5130;DHT22;2583;50.946;6.954;2023-06-04T03:32:20;13.50;18.10
5130;DHT22;2583;50.946;6.954;2023-06-04T03:34:47;13.50;18.40
5130;DHT22;2583;50.946;6.954;2023-06-04T03:37:14;13.50;18.60
5130;DHT22;2583;50.946;6.954;2023-06-04T03:39:40;13.50;18.70
5130;DHT22;2583;50.946;6.954;2023-06-04T03:42:07;13.50;19.00
5130;DHT22;2583;50.946;6.954;2023-06-04T03:44:34;13.50;18.50
5130;DHT22;2583;50.946;6.954;2023-06-04T03:47:01;13.50;18.00
5130;DHT22;2583;50.946;6.954;2023-06-04T03:49:28;13.50;17.00
5130;DHT22;2583;50.946;6.954;2023-06-04T03:51:54;13.60;16.60
5130;DHT22;2583;50.946;6.954;2023-06-04T03:54:21;13.60;16.30
5130;DHT22;2583;50.946;6.954;2023-06-04T03:56:48;13.70;16.40
5130;DHT22;2583;50.946;6.954;2023-06-04T03:59:15;13.70;16.10
5130;DHT22;2583;50.946;6.954;2023-06-04T04:01:42;13.70;15.20
5130;DHT22;2583;50.946;6.954;2023-06-04T04:04:10;13.80;15.60
5130;DHT22;2583;50.946;6.954;2023-06-04T04:06:37;13.80;15.30
5130;DHT22;2583;50.946;6.954;2023-06-04T04:09:04;13.80;14.50
5130;DHT22;2583;50.946;6.954;2023-06-04T04:11:32;13.90;14.70
5130;DHT22;2583;50.946;6.954;2023-06-04T04:13:59;13.90;14.70
5130;DHT22;2583;50.946;6.954;2023-06-04T04:16:27;13.90;14.50
5130;DHT22;2583;50.946;6.954;2023-06-04T04:18:54;13.90;14.40
5130;DHT22;2583;50.946;6.954;2023-06-04T04:21:21;14.00;14.40
5130;DHT22;2583;50.946;6.954;2023-06-04T04:23:49;14.00;14.40
5130;DHT22;2583;50.946;6.954;2023-06-04T04:26:17;14.10;14.50
5130;DHT22;2583;50.946;6.954;2023-06-04T04:28:44;14.00;14.30
5130;DHT22;2583;50.946;6.954;2023-06-04T04:31:11;14.10;14.40
5130;DHT22;2583;50.946;6.954;2023-06-04T04:33:37;14.10;14.20
5130;DHT22;2583;50.946;6.954;2023-06-04T04:36:06;14.10;14.40
5130;DHT22;2583;50.946;6.954;2023-06-04T04:38:39;14.10;14.40
5130;DHT22;2583;50.946;6.954;2023-06-04T04:41:06;14.20;14.90
5130;DHT22;2583;50.946;6.954;2023-06-04T04:43:36;14.10;15.50
5130;DHT22;2583;50.946;6.954;2023-06-04T04:46:04;14.20;15.80
5130;DHT22;2583;50.946;6.954;2023-06-04T04:48:31;14.10;16.00
5130;DHT22;2583;50.946;6.954;2023-06-04T04:50:58;14.20;16.30
5130;DHT22;2583;50.946;6.954;2023-06-04T04:53:26;14.10;16.50
5130;DHT22;2583;50.946;6.954;2023-06-04T04:55:53;14.20;16.40
5130;DHT22;2583;50.946;6.954;2023-06-04T04:58:20;14.20;15.90
5130;DHT22;2583;50.946;6.954;2023-06-04T05:00:47;14.20;15.60
5130;DHT22;2583;50.946;6.954;2023-06-04T05:03:14;14.20;15.40
5130;DHT22;2583;50.946;6.954;2023-06-04T05:05:41;14.20;15.20
5130;DHT22;2583;50.946;6.954;2023-06-04T05:08:08;14.20;15.30
5130;DHT22;2583;50.946;6.954;2023-06-04T05:10:35;14.20;15.20
5130;DHT22;2583;50.946;6.954;2023-06-04T05:13:05;14.20;15.30
5130;DHT22;2583;50.946;6.954;2023-06-04T05:15:32;14.30;16.10
5130;DHT22;2583;50.946;6.954;2023-06-04T05:17:59;14.30;17.70
5130;DHT22;2583;50.946;6.954;2023-06-04T05:20:27;14.30;17.80
5130;DHT22;2583;50.946;6.954;2023-06-04T05:22:54;14.30;17.90
5130;DHT22;2583;50.946;6.954;2023-06-04T05:25:21;14.20;17.90
5130;DHT22;2583;50.946;6.954;2023-06-04T05:27:48;14.20;18.40
5130;DHT22;2583;50.946;6.954;2023-06-04T05:30:16;14.30;17.80
5130;DHT22;2583;50.946;6.954;2023-06-04T05:32:43;14.30;17.10
5130;DHT22;2583;50.946;6.954;2023-06-04T05:35:10;14.40;17.30
5130;DHT22;2583;50.946;6.954;2023-06-04T05:37:37;14.40;17.30
5130;DHT22;2583;50.946;6.954;2023-06-04T05:40:07;14.50;17.30
5130;DHT22;2583;50.946;6.954;2023-06-04T05:42:34;14.60;17.00
5130;DHT22;2583;50.946;6.954;2023-06-04T05:45:01;14.60;16.90
5130;DHT22;2583;50.946;6.954;2023-06-04T05:47:28;14.60;16.60
5130;DHT22;2583;50.946;6.954;2023-06-04T05:49:58;14.70;17.50
5130;DHT22;2583;50.946;6.954;2023-06-04T05:52:24;14.70;17.30
5130;DHT22;2583;50.946;6.954;2023-06-04T05:54:51;14.70;17.60
5130;DHT22;2583;50.946;6.954;2023-06-04T05:57:18;14.70;17.20
5130;DHT22;2583;50.946;6.954;2023-06-04T05:59:45;14.80;17.40
5130;DHT22;2583;50.946;6.954;2023-06-04T06:02:12;14.80;17.40
5130;DHT22;2583;50.946;6.954;2023-06-04T06:04:39;14.90;17.20
5130;DHT22;2583;50.946;6.954;2023-06-04T06:07:07;15.00;17.70
5130;DHT22;2583;50.946;6.954;2023-06-04T06:09:34;15.10;17.80
5130;DHT22;2583;50.946;6.954;2023-06-04T06:12:02;15.20;16.60
5130;DHT22;2583;50.946;6.954;2023-06-04T06:14:29;15.20;16.80
5130;DHT22;2583;50.946;6.954;2023-06-04T06:16:56;15.40;16.10
5130;DHT22;2583;50.946;6.954;2023-06-04T06:19:23;15.50;15.80
5130;DHT22;2583;50.946;6.954;2023-06-04T06:21:50;15.50;15.40
5130;DHT22;2583;50.946;6.954;2023-06-04T06:24:17;15.60;15.10
5130;DHT22;2583;50.946;6.954;2023-06-04T06:26:43;15.70;14.80
5130;DHT22;2583;50.946;6.954;2023-06-04T06:29:10;15.80;14.80
5130;DHT22;2583;50.946;6.954;2023-06-04T06:31:37;15.90;14.50
5130;DHT22;2583;50.946;6.954;2023-06-04T06:34:04;15.90;14.40
5130;DHT22;2583;50.946;6.954;2023-06-04T06:36:31;16.00;14.10
5130;DHT22;2583;50.946;6.954;2023-06-04T06:38:59;16.10;13.90
5130;DHT22;2583;50.946;6.954;2023-06-04T06:41:26;16.20;13.70
5130;DHT22;2583;50.946;6.954;2023-06-04T06:43:53;16.20;13.50
5130;DHT22;2583;50.946;6.954;2023-06-04T06:46:19;16.30;13.30
5130;DHT22;2583;50.946;6.954;2023-06-04T06:48:48;16.40;13.40
5130;DHT22;2583;50.946;6.954;2023-06-04T06:51:15;16.50;12.90
5130;DHT22;2583;50.946;6.954;2023-06-04T06:53:42;16.60;13.00
5130;DHT22;2583;50.946;6.954;2023-06-04T06:56:08;16.70;12.90
5130;DHT22;2583;50.946;6.954;2023-06-04T06:58:35;16.80;12.70
5130;DHT22;2583;50.946;6.954;2023-06-04T07:01:02;16.90;12.60
5130;DHT22;2583;50.946;6.954;2023-06-04T07:03:29;17.00;12.40
5130;DHT22;2583;50.946;6.954;2023-06-04T07:05:56;17.00;12.30
5130;DHT22;2583;50.946;6.954;2023-06-04T07:08:23;17.10;11.90
5130;DHT22;2583;50.946;6.954;2023-06-04T07:10:50;17.20;12.00
5130;DHT22;2583;50.946;6.954;2023-06-04T07:13:17;17.30;12.10
5130;DHT22;2583;50.946;6.954;2023-06-04T07:15:44;17.30;12.20
5130;DHT22;2583;50.946;6.954;2023-06-04T07:18:10;17.50;12.10
5130;DHT22;2583;50.946;6.954;2023-06-04T07:20:37;17.60;12.10
5130;DHT22;2583;50.946;6.954;2023-06-04T07:23:04;17.70;12.20
5130;DHT22;2583;50.946;6.954;2023-06-04T07:25:31;17.90;11.60
5130;DHT22;2583;50.946;6.954;2023-06-04T07:27:58;17.90;11.40
5130;DHT22;2583;50.946;6.954;2023-06-04T07:30:25;18.10;11.30
5130;DHT22;2583;50.946;6.954;2023-06-04T07:32:52;18.10;11.00
5130;DHT22;2583;50.946;6.954;2023-06-04T07:35:19;18.10;11.10
5130;DHT22;2583;50.946;6.954;2023-06-04T07:37:46;18.30;10.50
5130;DHT22;2583;50.946;6.954;2023-06-04T07:40:16;18.50;10.90
5130;DHT22;2583;50.946;6.954;2023-06-04T07:42:44;18.50;10.70
5130;DHT22;2583;50.946;6.954;2023-06-04T07:45:11;18.70;10.70
5130;DHT22;2583;50.946;6.954;2023-06-04T07:47:38;18.80;10.40
5130;DHT22;2583;50.946;6.954;2023-06-04T07:50:05;19.00;10.60
5130;DHT22;2583;50.946;6.954;2023-06-04T07:52:33;19.10;9.40
5130;DHT22;2583;50.946;6.954;2023-06-04T07:55:00;19.30;9.60
5130;DHT22;2583;50.946;6.954;2023-06-04T07:57:27;19.30;8.80
5130;DHT22;2583;50.946;6.954;2023-06-04T07:59:53;19.40;9.10
5130;DHT22;2583;50.946;6.954;2023-06-04T08:02:20;19.50;9.20
5130;DHT22;2583;50.946;6.954;2023-06-04T08:04:47;19.60;8.80
5130;DHT22;2583;50.946;6.954;2023-06-04T08:07:14;19.80;8.70
5130;DHT22;2583;50.946;6.954;2023-06-04T08:09:41;19.90;8.20
5130;DHT22;2583;50.946;6.954;2023-06-04T08:12:08;20.00;8.40
5130;DHT22;2583;50.946;6.954;2023-06-04T08:14:36;20.10;7.30
5130;DHT22;2583;50.946;6.954;2023-06-04T08:17:03;20.20;7.80
5130;DHT22;2583;50.946;6.954;2023-06-04T08:19:30;20.40;7.70
5130;DHT22;2583;50.946;6.954;2023-06-04T08:21:57;20.60;7.30
5130;DHT22;2583;50.946;6.954;2023-06-04T08:24:23;20.60;6.70
5130;DHT22;2583;50.946;6.954;2023-06-04T08:26:50;20.50;6.90
5130;DHT22;2583;50.946;6.954;2023-06-04T08:29:17;20.70;7.40
5130;DHT22;2583;50.946;6.954;2023-06-04T08:31:44;20.90;7.10
5130;DHT22;2583;50.946;6.954;2023-06-04T08:34:11;21.00;6.50
5130;DHT22;2583;50.946;6.954;2023-06-04T08:36:38;21.00;6.40
5130;DHT22;2583;50.946;6.954;2023-06-04T08:39:05;21.20;6.50
5130;DHT22;2583;50.946;6.954;2023-06-04T08:41:42;21.20;6.70
5130;DHT22;2583;50.946;6.954;2023-06-04T08:44:10;21.40;5.40
5130;DHT22;2583;50.946;6.954;2023-06-04T08:46:40;21.60;4.80
5130;DHT22;2583;50.946;6.954;2023-06-04T08:49:08;21.70;4.30
5130;DHT22;2583;50.946;6.954;2023-06-04T08:51:37;21.80;4.30
5130;DHT22;2583;50.946;6.954;2023-06-04T08:54:05;21.90;3.90
5130;DHT22;2583;50.946;6.954;2023-06-04T08:56:35;22.00;3.70
5130;DHT22;2583;50.946;6.954;2023-06-04T08:59:06;22.10;3.70
5130;DHT22;2583;50.946;6.954;2023-06-04T09:01:35;22.00;2.70
5130;DHT22;2583;50.946;6.954;2023-06-04T09:04:05;22.10;3.10
5130;DHT22;2583;50.946;6.954;2023-06-04T09:06:36;22.00;2.80
5130;DHT22;2583;50.946;6.954;2023-06-04T09:09:05;22.00;3.40
5130;DHT22;2583;50.946;6.954;2023-06-04T09:11:44;22.20;3.10
5130;DHT22;2583;50.946;6.954;2023-06-04T09:14:14;22.30;2.60
5130;DHT22;2583;50.946;6.954;2023-06-04T09:16:49;22.50;2.30
5130;DHT22;2583;50.946;6.954;2023-06-04T09:19:18;22.60;1.50
5130;DHT22;2583;50.946;6.954;2023-06-04T09:21:57;22.70;2.20
5130;DHT22;2583;50.946;6.954;2023-06-04T09:24:26;22.80;2.10
5130;DHT22;2583;50.946;6.954;2023-06-04T09:27:15;22.90;1.60
5130;DHT22;2583;50.946;6.954;2023-06-04T09:29:54;23.00;1.10
5130;DHT22;2583;50.946;6.954;2023-06-04T09:32:29;23.10;1.00
5130;DHT22;2583;50.946;6.954;2023-06-04T09:35:15;23.00;1.00
5130;DHT22;2583;50.946;6.954;2023-06-04T09:37:51;23.20;1.00
5130;DHT22;2583;50.946;6.954;2023-06-04T09:40:18;23.30;1.00
5130;DHT22;2583;50.946;6.954;2023-06-04T09:42:46;23.10;1.00
5130;DHT22;2583;50.946;6.954;2023-06-04T09:45:27;23.20;1.00
5130;DHT22;2583;50.946;6.954;2023-06-04T09:47:54;23.30;1.00
5130;DHT22;2583;50.946;6.954;2023-06-04T09:50:29;23.30;1.00
5130;DHT22;2583;50.946;6.954;2023-06-04T09:52:56;23.30;1.00
5130;DHT22;2583;50.946;6.954;2023-06-04T09:55:23;23.40;1.00
5130;DHT22;2583;50.946;6.954;2023-06-04T09:57:51;23.40;1.00
5130;DHT22;2583;50.946;6.954;2023-06-04T10:00:20;23.30;1.00
5130;DHT22;2583;50.946;6.954;2023-06-04T10:02:48;23.20;1.00
5130;DHT22;2583;50.946;6.954;2023-06-04T10:05:15;23.40;1.00
5130;DHT22;2583;50.946;6.954;2023-06-04T10:07:43;23.30;1.00
5130;DHT22;2583;50.946;6.954;2023-06-04T10:10:15;23.40;1.00
5130;DHT22;2583;50.946;6.954;2023-06-04T10:12:43;23.40;1.00
5130;DHT22;2583;50.946;6.954;2023-06-04T10:15:13;23.50;1.00
5130;DHT22;2583;50.946;6.954;2023-06-04T10:17:40;23.60;1.00
5130;DHT22;2583;50.946;6.954;2023-06-04T10:20:08;23.70;1.00
5130;DHT22;2583;50.946;6.954;2023-06-04T10:22:36;23.80;1.00
5130;DHT22;2583;50.946;6.954;2023-06-04T10:25:03;23.90;1.00
5130;DHT22;2583;50.946;6.954;2023-06-04T10:27:31;24.00;1.00
5130;DHT22;2583;50.946;6.954;2023-06-04T10:29:58;24.00;1.00
5130;DHT22;2583;50.946;6.954;2023-06-04T10:32:29;23.90;1.00
5130;DHT22;2583;50.946;6.954;2023-06-04T10:34:57;24.00;1.00
5130;DHT22;2583;50.946;6.954;2023-06-04T10:37:25;24.10;1.00
5130;DHT22;2583;50.946;6.954;2023-06-04T10:39:54;24.20;1.00
5130;DHT22;2583;50.946;6.954;2023-06-04T10:42:25;23.90;1.00
5130;DHT22;2583;50.946;6.954;2023-06-04T10:44:53;23.80;1.00
5130;DHT22;2583;50.946;6.954;2023-06-04T10:47:24;23.90;1.00
5130;DHT22;2583;50.946;6.954;2023-06-04T10:49:53;24.00;1.00
5130;DHT22;2583;50.946;6.954;2023-06-04T10:52:21;24.10;1.00
5130;DHT22;2583;50.946;6.954;2023-06-04T10:54:48;24.00;1.00
5130;DHT22;2583;50.946;6.954;2023-06-04T10:57:16;24.20;1.00
5130;DHT22;2583;50.946;6.954;2023-06-04T10:59:56;24.30;1.00
5130;DHT22;2583;50.946;6.954;2023-06-04T11:02:23;24.40;1.00
5130;DHT22;2583;50.946;6.954;2023-06-04T11:05:04;24.20;1.00
5130;DHT22;2583;50.946;6.954;2023-06-04T11:07:47;24.20;1.00
5130;DHT22;2583;50.946;6.954;2023-06-04T11:10:16;24.40;1.00
5130;DHT22;2583;50.946;6.954;2023-06-04T11:12:47;24.60;1.00
5130;DHT22;2583;50.946;6.954;2023-06-04T11:15:14;24.70;1.00
5130;DHT22;2583;50.946;6.954;2023-06-04T11:17:52;24.60;1.00
5130;DHT22;2583;50.946;6.954;2023-06-04T11:20:21;24.70;1.00
5130;DHT22;2583;50.946;6.954;2023-06-04T11:22:55;24.80;1.00
5130;DHT22;2583;50.946;6.954;2023-06-04T11:25:26;24.70;1.00
5130;DHT22;2583;50.946;6.954;2023-06-04T11:27:53;24.60;1.00
5130;DHT22;2583;50.946;6.954;2023-06-04T11:30:22;24.80;1.00
5130;DHT22;2583;50.946;6.954;2023-06-04T11:32:49;25.00;1.00
5130;DHT22;2583;50.946;6.954;2023-06-04T11:35:16;25.00;1.00
5130;DHT22;2583;50.946;6.954;2023-06-04T11:37:53;24.70;1.00
5130;DHT22;2583;50.946;6.954;2023-06-04T11:40:21;24.70;1.00
5130;DHT22;2583;50.946;6.954;2023-06-04T11:42:48;24.70;1.00
5130;DHT22;2583;50.946;6.954;2023-06-04T11:45:18;24.60;1.00
5130;DHT22;2583;50.946;6.954;2023-06-04T11:47:54;25.00;1.00
5130;DHT22;2583;50.946;6.954;2023-06-04T11:50:25;24.90;1.00
5130;DHT22;2583;50.946;6.954;2023-06-04T11:52:53;24.80;1.00
5130;DHT22;2583;50.946;6.954;2023-06-04T11:55:20;25.00;1.00
5130;DHT22;2583;50.946;6.954;2023-06-04T11:57:48;25.00;1.00
5130;DHT22;2583;50.946;6.954;2023-06-04T12:00:16;25.40;1.00
5130;DHT22;2583;50.946;6.954;2023-06-04T12:02:54;25.60;1.00
5130;DHT22;2583;50.946;6.954;2023-06-04T12:05:23;25.90;1.00
5130;DHT22;2583;50.946;6.954;2023-06-04T12:08:04;26.10;1.00
5130;DHT22;2583;50.946;6.954;2023-06-04T12:10:40;26.10;1.00
5130;DHT22;2583;50.946;6.954;2023-06-04T12:13:07;26.20;1.00
5130;DHT22;2583;50.946;6.954;2023-06-04T12:15:34;26.30;1.00
5130;DHT22;2583;50.946;6.954;2023-06-04T12:18:01;26.40;1.00
5130;DHT22;2583;50.946;6.954;2023-06-04T12:20:38;26.40;1.00
5130;DHT22;2583;50.946;6.954;2023-06-04T12:23:05;26.30;1.00
5130;DHT22;2583;50.946;6.954;2023-06-04T12:25:33;26.40;1.00
5130;DHT22;2583;50.946;6.954;2023-06-04T12:28:01;26.30;1.00
5130;DHT22;2583;50.946;6.954;2023-06-04T12:30:39;26.40;1.00
5130;DHT22;2583;50.946;6.954;2023-06-04T12:33:06;26.50;1.00
5130;DHT22;2583;50.946;6.954;2023-06-04T12:35:34;26.70;1.00
5130;DHT22;2583;50.946;6.954;2023-06-04T12:38:06;27.10;1.00
5130;DHT22;2583;50.946;6.954;2023-06-04T12:40:35;27.40;1.00
5130;DHT22;2583;50.946;6.954;2023-06-04T12:43:02;27.40;1.00
5130;DHT22;2583;50.946;6.954;2023-06-04T12:45:29;27.60;1.00
5130;DHT22;2583;50.946;6.954;2023-06-04T12:47:56;28.00;1.00
5130;DHT22;2583;50.946;6.954;2023-06-04T12:50:23;28.00;1.00
5130;DHT22;2583;50.946;6.954;2023-06-04T12:52:49;27.80;1.00
5130;DHT22;2583;50.946;6.954;2023-06-04T12:55:16;28.10;1.00
5130;DHT22;2583;50.946;6.954;2023-06-04T12:57:45;28.10;1.00
5130;DHT22;2583;50.946;6.954;2023-06-04T13:00:13;28.60;1.00
5130;DHT22;2583;50.946;6.954;2023-06-04T13:02:41;28.80;1.00
5130;DHT22;2583;50.946;6.954;2023-06-04T13:05:08;29.30;1.00
5130;DHT22;2583;50.946;6.954;2023-06-04T13:07:35;29.50;1.00
5130;DHT22;2583;50.946;6.954;2023-06-04T13:10:02;29.40;1.00
5130;DHT22;2583;50.946;6.954;2023-06-04T13:12:29;29.70;1.00
5130;DHT22;2583;50.946;6.954;2023-06-04T13:14:55;30.20;1.00
5130;DHT22;2583;50.946;6.954;2023-06-04T13:17:22;30.30;1.00
5130;DHT22;2583;50.946;6.954;2023-06-04T13:19:49;30.80;1.00
5130;DHT22;2583;50.946;6.954;2023-06-04T13:22:16;31.20;1.00
5130;DHT22;2583;50.946;6.954;2023-06-04T13:24:43;31.40;1.00
5130;DHT22;2583;50.946;6.954;2023-06-04T13:27:10;31.60;1.00
5130;DHT22;2583;50.946;6.954;2023-06-04T13:29:37;31.70;1.00
5130;DHT22;2583;50.946;6.954;2023-06-04T13:32:04;32.00;1.00
5130;DHT22;2583;50.946;6.954;2023-06-04T13:34:31;32.40;1.00
5130;DHT22;2583;50.946;6.954;2023-06-04T13:36:58;32.40;1.00
5130;DHT22;2583;50.946;6.954;2023-06-04T13:39:25;32.30;1.00
5130;DHT22;2583;50.946;6.954;2023-06-04T13:41:52;32.30;1.00
5130;DHT22;2583;50.946;6.954;2023-06-04T13:44:20;32.40;1.00
5130;DHT22;2583;50.946;6.954;2023-06-04T13:46:47;32.70;1.00
5130;DHT22;2583;50.946;6.954;2023-06-04T13:49:14;32.30;1.00
5130;DHT22;2583;50.946;6.954;2023-06-04T13:51:40;31.90;1.00
5130;DHT22;2583;50.946;6.954;2023-06-04T13:54:07;32.20;1.00
5130;DHT22;2583;50.946;6.954;2023-06-04T13:56:37;32.80;1.00
5130;DHT22;2583;50.946;6.954;2023-06-04T13:59:04;33.50;1.00
5130;DHT22;2583;50.946;6.954;2023-06-04T14:01:30;33.70;1.00
5130;DHT22;2583;50.946;6.954;2023-06-04T14:03:57;33.70;1.00
5130;DHT22;2583;50.946;6.954;2023-06-04T14:06:27;34.20;1.00
5130;DHT22;2583;50.946;6.954;2023-06-04T14:08:54;34.00;1.00
5130;DHT22;2583;50.946;6.954;2023-06-04T14:11:21;33.50;1.00
5130;DHT22;2583;50.946;6.954;2023-06-04T14:13:48;32.60;1.00
5130;DHT22;2583;50.946;6.954;2023-06-04T14:16:15;32.80;1.00
5130;DHT22;2583;50.946;6.954;2023-06-04T14:18:42;32.80;1.00
5130;DHT22;2583;50.946;6.954;2023-06-04T14:21:09;32.90;1.00
5130;DHT22;2583;50.946;6.954;2023-06-04T14:23:36;31.90;1.00
5130;DHT22;2583;50.946;6.954;2023-06-04T14:26:02;30.50;1.00
5130;DHT22;2583;50.946;6.954;2023-06-04T14:28:29;30.10;1.00
5130;DHT22;2583;50.946;6.954;2023-06-04T14:30:56;29.00;1.00
5130;DHT22;2583;50.946;6.954;2023-06-04T14:33:24;28.60;1.00
5130;DHT22;2583;50.946;6.954;2023-06-04T14:35:51;28.20;1.00
5130;DHT22;2583;50.946;6.954;2023-06-04T14:38:18;27.90;1.00
5130;DHT22;2583;50.946;6.954;2023-06-04T14:40:45;27.80;1.00
5130;DHT22;2583;50.946;6.954;2023-06-04T14:43:12;27.70;1.00
5130;DHT22;2583;50.946;6.954;2023-06-04T14:45:39;27.50;1.00
5130;DHT22;2583;50.946;6.954;2023-06-04T14:48:07;27.40;1.00
5130;DHT22;2583;50.946;6.954;2023-06-04T14:50:42;27.10;1.00
5130;DHT22;2583;50.946;6.954;2023-06-04T14:53:09;26.90;1.00
5130;DHT22;2583;50.946;6.954;2023-06-04T14:55:36;26.80;1.00
5130;DHT22;2583;50.946;6.954;2023-06-04T14:58:03;26.60;1.00
5130;DHT22;2583;50.946;6.954;2023-06-04T15:00:30;26.60;1.00
5130;DHT22;2583;50.946;6.954;2023-06-04T15:02:58;26.40;1.00
5130;DHT22;2583;50.946;6.954;2023-06-04T15:05:26;26.20;1.00
5130;DHT22;2583;50.946;6.954;2023-06-04T15:07:53;26.30;1.00
5130;DHT22;2583;50.946;6.954;2023-06-04T15:10:20;26.40;1.00
5130;DHT22;2583;50.946;6.954;2023-06-04T15:12:47;26.50;1.00
5130;DHT22;2583;50.946;6.954;2023-06-04T15:15:14;26.50;1.00
5130;DHT22;2583;50.946;6.954;2023-06-04T15:17:40;26.40;1.00
5130;DHT22;2583;50.946;6.954;2023-06-04T15:20:08;26.30;1.00
5130;DHT22;2583;50.946;6.954;2023-06-04T15:22:34;26.30;1.00
5130;DHT22;2583;50.946;6.954;2023-06-04T15:25:01;26.30;1.00
5130;DHT22;2583;50.946;6.954;2023-06-04T15:27:28;26.20;1.00
5130;DHT22;2583;50.946;6.954;2023-06-04T15:29:55;26.30;1.00
5130;DHT22;2583;50.946;6.954;2023-06-04T15:32:22;26.20;1.00
5130;DHT22;2583;50.946;6.954;2023-06-04T15:34:49;26.20;1.00
5130;DHT22;2583;50.946;6.954;2023-06-04T15:37:16;26.20;1.00
5130;DHT22;2583;50.946;6.954;2023-06-04T15:39:43;26.10;1.00
5130;DHT22;2583;50.946;6.954;2023-06-04T15:42:10;26.10;1.00
5130;DHT22;2583;50.946;6.954;2023-06-04T15:44:38;26.10;1.00
5130;DHT22;2583;50.946;6.954;2023-06-04T15:47:05;26.10;1.00
5130;DHT22;2583;50.946;6.954;2023-06-04T15:49:32;25.90;1.00
5130;DHT22;2583;50.946;6.954;2023-06-04T15:51:59;26.00;1.00
5130;DHT22;2583;50.946;6.954;2023-06-04T15:54:26;26.20;1.00
5130;DHT22;2583;50.946;6.954;2023-06-04T15:57:11;26.30;1.00
5130;DHT22;2583;50.946;6.954;2023-06-04T15:59:37;26.30;1.00
5130;DHT22;2583;50.946;6.954;2023-06-04T16:02:05;26.30;1.00
5130;DHT22;2583;50.946;6.954;2023-06-04T16:04:33;26.20;1.00
5130;DHT22;2583;50.946;6.954;2023-06-04T16:06:59;26.20;1.00
5130;DHT22;2583;50.946;6.954;2023-06-04T16:09:28;26.20;1.00
5130;DHT22;2583;50.946;6.954;2023-06-04T16:11:55;26.10;1.00
5130;DHT22;2583;50.946;6.954;2023-06-04T16:14:22;26.10;1.00
5130;DHT22;2583;50.946;6.954;2023-06-04T16:16:49;26.20;1.00
5130;DHT22;2583;50.946;6.954;2023-06-04T16:19:16;26.20;1.00
5130;DHT22;2583;50.946;6.954;2023-06-04T16:21:42;26.20;1.00
5130;DHT22;2583;50.946;6.954;2023-06-04T16:24:09;26.20;1.00